Time;durP1;ratioP1;P1;durP2;ratioP2;P2;SDS_P1;SDS_P2;PMS_P1;PMS_P2;Temp;Humidity;BMP_temperature;BMP_pressure;BME280_temperature;BME280_humidity;BME280_pressure;Samples;Min_cycle;Max_cycle;Signal;HPM_P1;HPM_P2
2023/11/12 00:00:17;;;;;;;0.10;0.10;;;;;;;;;;4859188;29;20120;-90
2023/11/12 00:02:43;;;;;;;0.10;0.10;;;;;;;;;;4859274;29;20461;-90
2023/11/12 00:05:11;;;;;;;0.10;0.10;;;;;;;;;;4858941;29;20093;-91
2023/11/12 00:07:37;;;;;;;0.10;0.10;;;;;;;;;;4859445;29;20410;-91
2023/11/12 00:10:03;;;;;;;0.10;0.10;;;;;;;;;;4859181;29;20041;-90
2023/11/12 00:12:31;;;;;;;0.20;0.20;;;;;;;;;;4858809;29;20489;-91
2023/11/12 00:14:57;;;;;;;0.10;0.10;;;;;;;;;;4843968;29;20132;-90
2023/11/12 00:17:24;;;;;;;0.10;0.10;;;;;;;;;;4859008;29;20041;-91
2023/11/12 00:19:50;;;;;;;0.10;0.10;;;;;;;;;;4843735;29;20089;-90
2023/11/12 00:22:16;;;;;;;0.10;0.10;;;;;;;;;;4858959;29;20083;-90
2023/11/12 00:24:42;;;;;;;0.20;0.20;;;;;;;;;;4858931;29;20115;-90
2023/11/12 00:27:08;;;;;;;0.10;0.10;;;;;;;;;;4858999;29;20049;-90
2023/11/12 00:29:34;;;;;;;0.35;0.35;;;;;;;;;;4843460;29;20093;-90
2023/11/12 00:32:03;;;;;;;0.10;0.10;;;;;;;;;;4859040;29;20095;-91
2023/11/12 00:34:29;;;;;;;0.28;0.28;;;;;;;;;;4858949;29;20069;-90
2023/11/12 00:36:55;;;;;;;0.20;0.20;;;;;;;;;;4858825;29;20486;-90
2023/11/12 00:39:21;;;;;;;0.17;0.17;;;;;;;;;;4843447;29;20041;-90
2023/11/12 00:41:48;;;;;;;0.20;0.20;;;;;;;;;;4859116;29;20409;-88
2023/11/12 00:44:15;;;;;;;0.10;0.10;;;;;;;;;;4858680;29;20045;-90
2023/11/12 00:46:42;;;;;;;0.10;0.10;;;;;;;;;;4858469;29;20093;-90
2023/11/12 00:49:08;;;;;;;0.17;0.17;;;;;;;;;;4844775;29;20053;-91
2023/11/12 00:51:37;;;;;;;0.10;0.10;;;;;;;;;;4847298;29;20060;-91
2023/11/12 00:54:03;;;;;;;0.10;0.10;;;;;;;;;;4862590;29;20128;-91
2023/11/12 00:56:29;;;;;;;0.10;0.10;;;;;;;;;;4862576;29;20045;-91
2023/11/12 00:58:55;;;;;;;0.10;0.10;;;;;;;;;;4862559;29;20477;-90
2023/11/12 01:01:21;;;;;;;0.10;0.10;;;;;;;;;;4846976;29;20069;-91
2023/11/12 01:03:48;;;;;;;0.20;0.20;;;;;;;;;;4847063;29;20046;-91
2023/11/12 01:06:14;;;;;;;0.10;0.10;;;;;;;;;;4862477;29;20049;-91
2023/11/12 01:08:40;;;;;;;0.10;0.10;;;;;;;;;;4862198;29;20129;-91
2023/11/12 01:11:06;;;;;;;0.10;0.10;;;;;;;;;;4862150;29;20451;-91
2023/11/12 01:13:33;;;;;;;0.10;0.10;;;;;;;;;;4846948;29;20056;-91
2023/11/12 01:16:00;;;;;;;0.10;0.10;;;;;;;;;;4861965;29;20053;-92
2023/11/12 01:18:26;;;;;;;0.10;0.10;;;;;;;;;;4862542;29;20054;-91
2023/11/12 01:20:52;;;;;;;0.98;0.40;;;;;;;;;;4846925;29;20037;-91
2023/11/12 01:23:18;;;;;;;0.10;0.10;;;;;;;;;;4862003;29;20258;-89
2023/11/12 01:25:45;;;;;;;0.10;0.10;;;;;;;;;;4861951;29;20045;-89
2023/11/12 01:28:11;;;;;;;0.10;0.10;;;;;;;;;;4861678;29;20045;-89
2023/11/12 01:30:37;;;;;;;0.10;0.10;;;;;;;;;;4861696;29;20081;-90
2023/11/12 01:33:03;;;;;;;0.10;0.10;;;;;;;;;;4846314;29;20057;-90
2023/11/12 01:35:30;;;;;;;0.10;0.10;;;;;;;;;;4861874;29;20050;-90
2023/11/12 01:37:56;;;;;;;0.10;0.10;;;;;;;;;;4861814;29;20496;-90
2023/11/12 01:40:22;;;;;;;0.10;0.10;;;;;;;;;;4846125;29;20083;-89
2023/11/12 01:42:48;;;;;;;0.13;0.13;;;;;;;;;;4861629;29;20041;-89
2023/11/12 01:45:14;;;;;;;0.10;0.10;;;;;;;;;;4846164;29;20056;-90
2023/11/12 01:47:44;;;;;;;0.10;0.10;;;;;;;;;;4861565;29;20092;-90
2023/11/12 01:50:10;;;;;;;0.10;0.10;;;;;;;;;;4846543;29;20098;-89
2023/11/12 01:52:36;;;;;;;0.10;0.10;;;;;;;;;;4861495;29;20049;-90
2023/11/12 01:55:02;;;;;;;0.10;0.10;;;;;;;;;;4861436;29;20052;-90
2023/11/12 01:57:28;;;;;;;0.10;0.10;;;;;;;;;;4861430;29;20053;-90
2023/11/12 01:59:54;;;;;;;0.10;0.10;;;;;;;;;;4861359;29;20105;-89
2023/11/12 02:02:20;;;;;;;0.10;0.10;;;;;;;;;;4861353;29;20046;-88
2023/11/12 02:04:48;;;;;;;0.10;0.10;;;;;;;;;;4861266;29;20406;-89
2023/11/12 02:07:14;;;;;;;0.10;0.10;;;;;;;;;;4861307;29;20045;-89
2023/11/12 02:09:41;;;;;;;0.20;0.20;;;;;;;;;;4861134;29;20074;-89
2023/11/12 02:12:07;;;;;;;0.10;0.10;;;;;;;;;;4845869;29;20418;-89
2023/11/12 02:14:33;;;;;;;0.10;0.10;;;;;;;;;;4861400;29;20046;-90
2023/11/12 02:16:59;;;;;;;0.10;0.10;;;;;;;;;;4861140;29;20045;-89
2023/11/12 02:19:26;;;;;;;0.10;0.10;;;;;;;;;;4845744;29;20107;-89
2023/11/12 02:21:52;;;;;;;0.10;0.10;;;;;;;;;;4860891;29;20165;-90
2023/11/12 02:24:18;;;;;;;0.10;0.10;;;;;;;;;;4861053;29;20124;-90
2023/11/12 02:26:44;;;;;;;0.10;0.10;;;;;;;;;;4860951;29;20084;-90
2023/11/12 02:29:11;;;;;;;0.10;0.10;;;;;;;;;;4860744;29;20105;-90
2023/11/12 02:31:37;;;;;;;0.10;0.10;;;;;;;;;;4860705;29;20051;-91
2023/11/12 02:34:03;;;;;;;0.10;0.10;;;;;;;;;;4860854;29;20475;-91
2023/11/12 02:36:31;;;;;;;0.10;0.10;;;;;;;;;;4860882;29;20056;-91
2023/11/12 02:38:57;;;;;;;0.10;0.10;;;;;;;;;;4860606;29;20053;-91
2023/11/12 02:41:23;;;;;;;0.10;0.10;;;;;;;;;;4860679;29;20041;-91
2023/11/12 02:43:50;;;;;;;0.10;0.10;;;;;;;;;;4860922;29;20049;-92
2023/11/12 02:46:16;;;;;;;0.10;0.10;;;;;;;;;;4845416;29;20034;-92
2023/11/12 02:48:52;;;;;;;0.10;0.10;;;;;;;;;;4845138;29;20486;-91
2023/11/12 02:51:19;;;;;;;0.10;0.10;;;;;;;;;;4860715;29;20052;-91
2023/11/12 02:53:46;;;;;;;0.10;0.10;;;;;;;;;;4845312;29;20051;-92
2023/11/12 02:56:13;;;;;;;0.10;0.10;;;;;;;;;;4845221;29;20098;-91
2023/11/12 02:58:39;;;;;;;0.10;0.10;;;;;;;;;;4860605;29;20528;-92
2023/11/12 03:01:05;;;;;;;0.10;0.10;;;;;;;;;;4845330;29;20412;-93
2023/11/12 03:03:34;;;;;;;0.10;0.10;;;;;;;;;;4862519;29;20041;-92
2023/11/12 03:06:00;;;;;;;0.10;0.10;;;;;;;;;;4848521;29;20056;-92
2023/11/12 03:08:26;;;;;;;0.10;0.10;;;;;;;;;;4848198;29;20092;-92
2023/11/12 03:10:54;;;;;;;0.10;0.10;;;;;;;;;;4833013;29;20150;-92
2023/11/12 03:13:21;;;;;;;0.10;0.10;;;;;;;;;;4862878;29;20049;-92
2023/11/12 03:15:47;;;;;;;0.17;0.17;;;;;;;;;;4833062;29;20056;-93
2023/11/12 03:18:13;;;;;;;0.10;0.10;;;;;;;;;;4847704;29;20041;-91
2023/11/12 03:20:39;;;;;;;0.10;0.10;;;;;;;;;;4847980;29;20041;-91
2023/11/12 03:23:07;;;;;;;0.10;0.10;;;;;;;;;;4847705;29;20040;-91
2023/11/12 03:25:33;;;;;;;0.10;0.10;;;;;;;;;;4848044;29;20164;-91
2023/11/12 03:27:59;;;;;;;0.10;0.10;;;;;;;;;;4847506;29;20084;-91
2023/11/12 03:30:25;;;;;;;0.10;0.10;;;;;;;;;;4832533;29;20073;-92
2023/11/12 03:32:51;;;;;;;0.10;0.10;;;;;;;;;;4832739;29;20493;-92
2023/11/12 03:35:17;;;;;;;0.20;0.20;;;;;;;;;;4847405;29;20104;-91
2023/11/12 03:37:43;;;;;;;0.13;0.13;;;;;;;;;;4847329;29;20465;-91
2023/11/12 03:40:15;;;;;;;0.10;0.10;;;;;;;;;;4848175;29;20051;-96
2023/11/12 03:42:41;;;;;;;0.10;0.10;;;;;;;;;;4863240;29;20041;-91
2023/11/12 03:45:08;;;;;;;0.10;0.10;;;;;;;;;;4862523;29;20045;-91
2023/11/12 03:47:34;;;;;;;0.10;0.10;;;;;;;;;;4832381;29;20049;-91
2023/11/12 03:50:01;;;;;;;0.10;0.10;;;;;;;;;;4862380;29;20055;-92
2023/11/12 03:52:27;;;;;;;0.10;0.10;;;;;;;;;;4847238;29;20128;-91
2023/11/12 03:54:53;;;;;;;0.10;0.10;;;;;;;;;;4847092;29;20049;-91
2023/11/12 03:57:19;;;;;;;0.10;0.10;;;;;;;;;;4862271;29;20102;-91
2023/11/12 03:59:47;;;;;;;0.10;0.10;;;;;;;;;;4847182;29;20561;-92
2023/11/12 04:02:14;;;;;;;0.10;0.10;;;;;;;;;;4847290;29;20049;-91
2023/11/12 04:04:40;;;;;;;0.10;0.10;;;;;;;;;;4862047;29;20061;-91
2023/11/12 04:13:07;;;;;;;0.10;0.10;;;;;;;;;;4916961;29;20059;-89
2023/11/12 04:15:33;;;;;;;0.10;0.10;;;;;;;;;;4902851;29;20075;-89
2023/11/12 04:17:59;;;;;;;0.20;0.20;;;;;;;;;;4902694;29;20323;-88
2023/11/12 04:20:28;;;;;;;0.10;0.10;;;;;;;;;;4902583;29;20388;-88
2023/11/12 04:22:54;;;;;;;0.10;0.10;;;;;;;;;;4902545;29;20075;-87
2023/11/12 04:25:20;;;;;;;0.40;0.40;;;;;;;;;;4902459;29;20128;-88
2023/11/12 04:27:47;;;;;;;0.10;0.10;;;;;;;;;;4902517;29;20134;-89
2023/11/12 04:30:14;;;;;;;0.10;0.10;;;;;;;;;;4902424;29;20058;-89
2023/11/12 04:32:40;;;;;;;0.10;0.10;;;;;;;;;;4918552;29;20043;-88
2023/11/12 04:35:07;;;;;;;0.10;0.10;;;;;;;;;;4902518;29;20134;-89
2023/11/12 04:37:32;;;;;;;0.20;0.20;;;;;;;;;;4902442;29;20455;-89
2023/11/12 04:40:03;;;;;;;0.30;0.30;;;;;;;;;;4886866;29;20039;-90
2023/11/12 04:42:29;;;;;;;0.10;0.10;;;;;;;;;;4887951;29;20048;-90
2023/11/12 04:44:55;;;;;;;0.90;0.90;;;;;;;;;;4887153;29;20047;-90
2023/11/12 04:47:21;;;;;;;0.10;0.10;;;;;;;;;;4918164;29;20043;-89
2023/11/12 04:49:47;;;;;;;0.10;0.10;;;;;;;;;;4887176;29;20044;-88
2023/11/12 04:52:13;;;;;;;0.10;0.10;;;;;;;;;;4886869;29;20035;-89
2023/11/12 04:54:39;;;;;;;0.10;0.10;;;;;;;;;;4902585;29;20115;-89
2023/11/12 04:57:05;;;;;;;0.10;0.10;;;;;;;;;;4886690;29;20475;-88
2023/11/12 04:59:31;;;;;;;0.10;0.10;;;;;;;;;;4886744;29;20047;-87
2023/11/12 05:01:59;;;;;;;0.10;0.10;;;;;;;;;;4886702;29;20051;-87
2023/11/12 05:04:25;;;;;;;0.10;0.10;;;;;;;;;;4886682;29;20554;-88
2023/11/12 05:06:51;;;;;;;0.10;0.10;;;;;;;;;;4886447;29;20047;-88
2023/11/12 05:09:17;;;;;;;0.10;0.10;;;;;;;;;;4901998;29;20403;-87
2023/11/12 05:11:45;;;;;;;0.10;0.10;;;;;;;;;;4902168;29;20143;-89
2023/11/12 05:14:11;;;;;;;0.10;0.10;;;;;;;;;;4918246;29;20087;-88
2023/11/12 05:16:37;;;;;;;0.10;0.10;;;;;;;;;;4902330;29;20102;-88
2023/11/12 05:19:03;;;;;;;0.10;0.10;;;;;;;;;;4886432;29;20051;-89
2023/11/12 05:21:29;;;;;;;0.10;0.10;;;;;;;;;;4886490;29;20134;-88
2023/11/12 05:23:55;;;;;;;0.10;0.10;;;;;;;;;;4886756;29;20138;-89
2023/11/12 05:26:21;;;;;;;0.10;0.10;;;;;;;;;;4886531;29;20424;-87
2023/11/12 05:28:47;;;;;;;0.10;0.10;;;;;;;;;;4886596;29;20044;-88
2023/11/12 05:31:13;;;;;;;0.10;0.10;;;;;;;;;;4902002;29;20305;-87
2023/11/12 05:33:39;;;;;;;0.10;0.10;;;;;;;;;;4886530;29;20054;-88
2023/11/12 05:36:05;;;;;;;0.10;0.10;;;;;;;;;;4889100;29;20059;-88
2023/11/12 05:38:31;;;;;;;0.10;0.10;;;;;;;;;;4889771;29;20207;-88
2023/11/12 05:40:57;;;;;;;0.15;0.15;;;;;;;;;;4890008;29;20538;-88
2023/11/12 05:43:23;;;;;;;0.10;0.10;;;;;;;;;;4905372;29;20094;-89
2023/11/12 05:45:49;;;;;;;0.22;0.22;;;;;;;;;;4889778;29;20131;-88
2023/11/12 05:48:16;;;;;;;0.10;0.10;;;;;;;;;;4905237;29;20075;-87
2023/11/12 05:50:42;;;;;;;0.10;0.10;;;;;;;;;;4920790;29;20047;-88
2023/11/12 05:53:08;;;;;;;0.10;0.10;;;;;;;;;;4905165;29;20085;-88
2023/11/12 05:55:34;;;;;;;0.10;0.10;;;;;;;;;;4889496;29;20075;-88
2023/11/12 05:58:00;;;;;;;0.10;0.10;;;;;;;;;;4905132;29;20044;-90
2023/11/12 06:00:26;;;;;;;0.10;0.10;;;;;;;;;;4889782;29;20094;-89
2023/11/12 06:02:52;;;;;;;0.20;0.20;;;;;;;;;;4905013;29;20036;-89
2023/11/12 06:05:18;;;;;;;0.10;0.10;;;;;;;;;;4889503;29;20079;-89
2023/11/12 06:07:44;;;;;;;0.10;0.10;;;;;;;;;;4889818;29;20546;-89
2023/11/12 06:10:11;;;;;;;0.10;0.10;;;;;;;;;;4889298;29;20483;-89
2023/11/12 06:12:37;;;;;;;0.10;0.10;;;;;;;;;;4889401;29;20063;-88
2023/11/12 06:15:05;;;;;;;0.10;0.10;;;;;;;;;;4889498;29;20067;-89
2023/11/12 06:17:31;;;;;;;0.10;0.10;;;;;;;;;;4889521;29;20048;-89
2023/11/12 06:19:57;;;;;;;0.10;0.10;;;;;;;;;;4889260;29;20049;-91
2023/11/12 06:22:23;;;;;;;0.10;0.10;;;;;;;;;;4889219;29;20398;-89
2023/11/12 06:24:49;;;;;;;0.10;0.10;;;;;;;;;;4889375;29;20047;-89
2023/11/12 06:27:15;;;;;;;0.10;0.10;;;;;;;;;;4889237;29;20478;-89
2023/11/12 06:29:43;;;;;;;0.10;0.10;;;;;;;;;;4888819;29;20068;-87
2023/11/12 06:32:09;;;;;;;0.10;0.10;;;;;;;;;;4888616;29;20048;-87
2023/11/12 06:34:35;;;;;;;0.10;0.10;;;;;;;;;;4889091;29;20131;-88
2023/11/12 06:37:03;;;;;;;0.10;0.10;;;;;;;;;;4919976;29;20048;-88
2023/11/12 06:39:29;;;;;;;0.10;0.10;;;;;;;;;;4889403;29;20372;-90
2023/11/12 06:41:55;;;;;;;0.10;0.10;;;;;;;;;;4889215;29;20142;-90
2023/11/12 06:44:21;;;;;;;0.10;0.10;;;;;;;;;;4889185;29;20491;-90
2023/11/12 06:46:47;;;;;;;0.10;0.10;;;;;;;;;;4887959;29;20048;-89
2023/11/12 06:49:13;;;;;;;0.10;0.10;;;;;;;;;;4904427;29;20043;-89
2023/11/12 06:51:39;;;;;;;0.10;0.10;;;;;;;;;;4889126;29;20040;-90
2023/11/12 06:54:08;;;;;;;0.10;0.10;;;;;;;;;;4904534;29;20376;-91
2023/11/12 06:56:34;;;;;;;0.10;0.10;;;;;;;;;;4888985;29;20040;-90
2023/11/12 06:59:02;;;;;;;0.10;0.10;;;;;;;;;;4904344;29;20062;-90
2023/11/12 07:01:29;;;;;;;0.10;0.10;;;;;;;;;;4904252;29;20044;-90
2023/11/12 07:03:56;;;;;;;0.13;0.13;;;;;;;;;;4888960;29;20575;-90
2023/11/12 07:06:22;;;;;;;0.10;0.10;;;;;;;;;;4889008;29;20091;-90
2023/11/12 07:08:48;;;;;;;0.10;0.10;;;;;;;;;;4888818;29;20418;-91
2023/11/12 07:11:14;;;;;;;0.10;0.10;;;;;;;;;;4888949;29;20071;-89
2023/11/12 07:13:40;;;;;;;0.10;0.10;;;;;;;;;;4888569;29;20050;-90
2023/11/12 07:16:06;;;;;;;0.10;0.10;;;;;;;;;;4888149;29;20439;-88
2023/11/12 07:18:32;;;;;;;0.10;0.10;;;;;;;;;;4903361;29;20067;-87
2023/11/12 07:20:58;;;;;;;0.10;0.10;;;;;;;;;;4918967;29;20475;-87
2023/11/12 07:23:26;;;;;;;0.10;0.10;;;;;;;;;;4903549;29;20456;-88
2023/11/12 07:25:52;;;;;;;0.10;0.10;;;;;;;;;;4887753;29;20040;-87
2023/11/12 07:28:18;;;;;;;0.38;0.38;;;;;;;;;;4903325;29;20054;-88
2023/11/12 07:30:44;;;;;;;0.10;0.10;;;;;;;;;;4887559;29;20044;-88
2023/11/12 07:33:10;;;;;;;0.10;0.10;;;;;;;;;;4918851;29;20043;-88
2023/11/12 07:35:37;;;;;;;0.10;0.10;;;;;;;;;;4903009;29;20052;-88
2023/11/12 07:38:03;;;;;;;0.10;0.10;;;;;;;;;;4887879;29;20044;-88
2023/11/12 07:40:29;;;;;;;0.20;0.20;;;;;;;;;;4918942;29;20032;-89
2023/11/12 07:42:55;;;;;;;0.10;0.10;;;;;;;;;;4887940;29;20098;-90
2023/11/12 07:45:21;;;;;;;0.10;0.10;;;;;;;;;;4903671;29;20042;-89
2023/11/12 07:47:47;;;;;;;0.10;0.10;;;;;;;;;;4903914;29;20130;-89
2023/11/12 07:50:13;;;;;;;0.10;0.10;;;;;;;;;;4903102;29;20122;-89
2023/11/12 07:52:41;;;;;;;0.10;0.10;;;;;;;;;;4887246;29;20039;-88
2023/11/12 07:55:07;;;;;;;0.10;0.10;;;;;;;;;;4903175;29;20051;-89
2023/11/12 07:57:33;;;;;;;0.10;0.10;;;;;;;;;;4887141;29;20054;-89
2023/11/12 08:00:00;;;;;;;0.10;0.10;;;;;;;;;;4919293;29;20045;-89
2023/11/12 08:02:26;;;;;;;0.10;0.10;;;;;;;;;;4904142;29;20044;-87
2023/11/12 08:04:52;;;;;;;0.10;0.10;;;;;;;;;;4919093;29;20039;-89
2023/11/12 08:07:18;;;;;;;0.10;0.10;;;;;;;;;;4887414;29;20039;-89
2023/11/12 08:09:48;;;;;;;0.10;0.10;;;;;;;;;;4902871;29;20542;-89
2023/11/12 08:12:16;;;;;;;0.10;0.10;;;;;;;;;;4918227;29;20063;-90
2023/11/12 08:14:42;;;;;;;0.10;0.10;;;;;;;;;;4903031;29;20061;-90
2023/11/12 08:17:08;;;;;;;0.10;0.10;;;;;;;;;;4887590;29;20043;-90
2023/11/12 08:19:35;;;;;;;0.10;0.10;;;;;;;;;;4887949;29;20394;-89
2023/11/12 08:22:01;;;;;;;0.40;0.20;;;;;;;;;;4903218;29;20111;-89
2023/11/12 08:24:27;;;;;;;0.10;0.10;;;;;;;;;;4887327;29;20517;-91
2023/11/12 08:26:55;;;;;;;0.10;0.10;;;;;;;;;;4887141;29;20115;-88
2023/11/12 08:29:21;;;;;;;0.10;0.10;;;;;;;;;;4918144;29;20059;-89
2023/11/12 08:31:47;;;;;;;0.10;0.10;;;;;;;;;;4886870;29;20044;-88
2023/11/12 08:34:13;;;;;;;0.15;0.15;;;;;;;;;;4902906;29;20051;-89
2023/11/12 08:36:39;;;;;;;0.10;0.10;;;;;;;;;;4902598;29;20039;-89
2023/11/12 08:39:05;;;;;;;0.10;0.10;;;;;;;;;;4902782;29;20042;-89
2023/11/12 08:41:31;;;;;;;0.10;0.10;;;;;;;;;;4887087;29;20387;-89
2023/11/12 08:43:57;;;;;;;0.10;0.10;;;;;;;;;;4902641;29;20065;-89
2023/11/12 08:46:23;;;;;;;0.20;0.20;;;;;;;;;;4887411;29;20481;-88
2023/11/12 08:48:50;;;;;;;0.30;0.30;;;;;;;;;;4902691;29;20051;-89
2023/11/12 08:51:16;;;;;;;0.10;0.10;;;;;;;;;;4887014;29;20414;-90
2023/11/12 08:53:44;;;;;;;0.22;0.22;;;;;;;;;;4886833;29;20048;-90
2023/11/12 08:56:10;;;;;;;0.10;0.10;;;;;;;;;;4887023;29;20043;-88
2023/11/12 08:58:36;;;;;;;0.20;0.20;;;;;;;;;;4886355;29;20102;-89
2023/11/12 09:01:03;;;;;;;0.10;0.10;;;;;;;;;;4886299;29;20487;-88
2023/11/12 09:03:31;;;;;;;0.10;0.10;;;;;;;;;;4886618;29;20123;-88
2023/11/12 09:05:57;;;;;;;0.10;0.10;;;;;;;;;;4917550;29;20054;-88
2023/11/12 09:08:23;;;;;;;0.10;0.10;;;;;;;;;;4902192;29;20044;-88
2023/11/12 09:10:49;;;;;;;0.10;0.10;;;;;;;;;;4888287;29;20467;-88
2023/11/12 09:13:15;;;;;;;0.30;0.30;;;;;;;;;;4905984;29;20439;-88
2023/11/12 09:15:42;;;;;;;0.10;0.10;;;;;;;;;;4920645;29;20054;-87
2023/11/12 09:18:08;;;;;;;0.10;0.10;;;;;;;;;;4921405;29;20051;-86
2023/11/12 09:20:34;;;;;;;0.10;0.10;;;;;;;;;;4921459;29;20111;-86
2023/11/12 09:23:01;;;;;;;0.20;0.20;;;;;;;;;;4921249;29;20487;-86
2023/11/12 09:25:27;;;;;;;0.10;0.10;;;;;;;;;;4921233;29;20056;-87
2023/11/12 09:27:54;;;;;;;0.10;0.10;;;;;;;;;;4921284;29;20059;-86
2023/11/12 09:30:20;;;;;;;0.10;0.10;;;;;;;;;;4921029;29;20506;-87
2023/11/12 09:32:46;;;;;;;0.10;0.10;;;;;;;;;;4921167;29;20051;-87
2023/11/12 09:35:11;;;;;;;0.20;0.20;;;;;;;;;;4921077;29;20048;-87
2023/11/12 09:37:37;;;;;;;0.10;0.10;;;;;;;;;;4920640;29;20043;-86
2023/11/12 09:40:10;;;;;;;0.25;0.25;;;;;;;;;;4905253;29;20043;-86
2023/11/12 09:42:39;;;;;;;0.10;0.10;;;;;;;;;;4920788;29;20051;-86
2023/11/12 09:45:07;;;;;;;0.10;0.10;;;;;;;;;;4905147;29;20074;-87
2023/11/12 09:47:33;;;;;;;0.10;0.10;;;;;;;;;;4920758;29;20043;-87
2023/11/12 09:49:59;;;;;;;0.10;0.10;;;;;;;;;;4920525;29;20528;-86
2023/11/12 09:52:26;;;;;;;0.25;0.25;;;;;;;;;;4921028;29;20047;-91
2023/11/12 09:54:52;;;;;;;0.10;0.10;;;;;;;;;;4905577;29;20043;-93
2023/11/12 09:57:18;;;;;;;0.10;0.10;;;;;;;;;;4905346;29;20039;-87
2023/11/12 09:59:44;;;;;;;0.10;0.10;;;;;;;;;;4920519;29;20047;-86
2023/11/12 10:02:10;;;;;;;0.10;0.10;;;;;;;;;;4905005;29;20040;-87
2023/11/12 10:04:36;;;;;;;0.35;0.35;;;;;;;;;;4920550;29;20130;-86
2023/11/12 10:07:04;;;;;;;0.10;0.10;;;;;;;;;;4920486;29;20048;-86
2023/11/12 10:09:31;;;;;;;0.20;0.20;;;;;;;;;;4920455;29;20123;-87
2023/11/12 10:12:06;;;;;;;0.10;0.10;;;;;;;;;;4920278;29;20067;-86
2023/11/12 10:14:32;;;;;;;0.10;0.10;;;;;;;;;;4904564;29;20482;-87
2023/11/12 10:17:06;;;;;;;0.10;0.10;;;;;;;;;;4904568;29;20087;-88
2023/11/12 10:19:32;;;;;;;0.35;0.35;;;;;;;;;;4904147;29;20047;-87
2023/11/12 10:21:58;;;;;;;0.22;0.22;;;;;;;;;;4903208;29;20050;-89
2023/11/12 10:24:27;;;;;;;0.10;0.10;;;;;;;;;;4921832;29;20232;-94
2023/11/12 10:26:54;;;;;;;0.10;0.10;;;;;;;;;;4922998;29;20063;-88
2023/11/12 10:29:21;;;;;;;0.10;0.10;;;;;;;;;;4904321;29;20043;-89
2023/11/12 10:31:48;;;;;;;0.13;0.13;;;;;;;;;;4919769;29;20051;-88
2023/11/12 10:34:16;;;;;;;0.10;0.10;;;;;;;;;;4904276;29;20046;-88
2023/11/12 10:36:53;;;;;;;0.10;0.10;;;;;;;;;;4903931;29;20120;-87
2023/11/12 10:39:19;;;;;;;0.20;0.20;;;;;;;;;;4903927;29;20047;-88
2023/11/12 10:41:45;;;;;;;0.30;0.30;;;;;;;;;;4920090;29;20048;-88
2023/11/12 10:44:11;;;;;;;0.10;0.10;;;;;;;;;;4919934;29;20123;-93
2023/11/12 10:46:39;;;;;;;0.10;0.10;;;;;;;;;;4905080;29;20912;-92
2023/11/12 10:49:08;;;;;;;0.10;0.10;;;;;;;;;;4904767;29;20043;-89
2023/11/12 10:51:36;;;;;;;0.10;0.10;;;;;;;;;;4903966;29;20487;-88
2023/11/12 10:54:02;;;;;;;0.20;0.20;;;;;;;;;;4920110;29;20040;-88
2023/11/12 10:56:28;;;;;;;0.20;0.20;;;;;;;;;;4904077;29;20126;-88
2023/11/12 10:58:55;;;;;;;0.10;0.10;;;;;;;;;;4919675;29;20090;-88
2023/11/12 11:01:21;;;;;;;0.10;0.10;;;;;;;;;;4920707;29;20046;-87
2023/11/12 11:03:48;;;;;;;0.10;0.10;;;;;;;;;;4922608;29;20043;-87
2023/11/12 11:06:14;;;;;;;0.10;0.10;;;;;;;;;;4919581;29;20047;-87
2023/11/12 11:08:40;;;;;;;0.10;0.10;;;;;;;;;;4919307;29;20107;-86
2023/11/12 11:11:07;;;;;;;0.20;0.20;;;;;;;;;;4919048;29;20048;-86
2023/11/12 11:13:33;;;;;;;0.10;0.10;;;;;;;;;;4919296;29;20044;-86
2023/11/12 11:16:00;;;;;;;0.10;0.10;;;;;;;;;;4919433;29;20123;-88
2023/11/12 11:18:33;;;;;;;0.10;0.10;;;;;;;;;;4919218;29;20051;-89
2023/11/12 11:21:06;;;;;;;0.20;0.20;;;;;;;;;;4919237;29;20047;-89
2023/11/12 11:23:49;;;;;;;0.10;0.10;;;;;;;;;;4919569;29;20077;-88
2023/11/12 11:26:27;;;;;;;0.10;0.10;;;;;;;;;;4903401;29;20050;-88
2023/11/12 11:29:07;;;;;;;0.13;0.13;;;;;;;;;;4919286;29;20099;-89
2023/11/12 11:31:41;;;;;;;0.10;0.10;;;;;;;;;;4919130;29;20208;-88
2023/11/12 11:34:07;;;;;;;0.17;0.17;;;;;;;;;;4902907;29;20487;-88
2023/11/12 11:36:33;;;;;;;0.10;0.10;;;;;;;;;;4903263;29;20127;-88
2023/11/12 11:39:06;;;;;;;0.10;0.10;;;;;;;;;;4903415;29;20102;-92
2023/11/12 11:41:51;;;;;;;0.10;0.10;;;;;;;;;;4903953;29;20127;-92
2023/11/12 11:44:33;;;;;;;0.10;0.10;;;;;;;;;;4903468;29;20070;-87
2023/11/12 11:47:05;;;;;;;0.20;0.20;;;;;;;;;;4918932;29;20043;-92
2023/11/12 11:49:31;;;;;;;;;;;;;;;;;;4903858;29;20279;-88
2023/11/12 11:52:00;;;;;;;0.10;0.10;;;;;;;;;;4902805;29;19925;-89
2023/11/12 11:54:26;;;;;;;0.35;0.35;;;;;;;;;;4902800;29;20130;-89
2023/11/12 11:56:52;;;;;;;0.10;0.10;;;;;;;;;;4918576;29;20042;-88
2023/11/12 11:59:18;;;;;;;0.20;0.20;;;;;;;;;;4918350;29;20495;-89
2023/11/12 12:01:46;;;;;;;0.17;0.17;;;;;;;;;;4918406;29;20040;-88
2023/11/12 12:04:13;;;;;;;0.10;0.10;;;;;;;;;;4903080;29;20047;-88
2023/11/12 12:06:43;;;;;;;0.10;0.10;;;;;;;;;;4918567;29;20158;-89
2023/11/12 12:09:13;;;;;;;0.10;0.10;;;;;;;;;;4902931;29;20443;-89
2023/11/12 12:11:39;;;;;;;0.10;0.10;;;;;;;;;;4918330;29;20091;-89
2023/11/12 12:14:05;;;;;;;0.10;0.10;;;;;;;;;;4902543;29;20075;-90
2023/11/12 12:16:32;;;;;;;0.20;0.20;;;;;;;;;;4918477;29;20039;-89
2023/11/12 12:18:58;;;;;;;0.10;0.10;;;;;;;;;;4902654;29;20491;-89
2023/11/12 12:21:24;;;;;;;0.10;0.10;;;;;;;;;;4918144;29;20050;-89
2023/11/12 12:23:50;;;;;;;0.10;0.10;;;;;;;;;;4902472;29;20448;-89
2023/11/12 12:26:16;;;;;;;0.10;0.10;;;;;;;;;;4902324;29;20044;-89
2023/11/12 12:28:42;;;;;;;0.10;0.10;;;;;;;;;;4902694;29;20048;-89
2023/11/12 12:31:08;;;;;;;0.10;0.10;;;;;;;;;;4918173;29;20411;-89
2023/11/12 12:33:38;;;;;;;0.10;0.10;;;;;;;;;;4902518;29;20091;-89
2023/11/12 12:36:10;;;;;;;0.10;0.10;;;;;;;;;;4918456;29;20134;-90
2023/11/12 12:38:39;;;;;;;;;;;;;;;;;;4903073;29;20043;-89
2023/11/12 12:41:05;;;;;;;0.10;0.10;;;;;;;;;;4902657;29;20390;-91
2023/11/12 12:43:49;;;;;;;0.10;0.10;;;;;;;;;;4903284;29;20167;-90
2023/11/12 12:46:15;;;;;;;0.10;0.10;;;;;;;;;;4917955;29;20160;-91
2023/11/12 12:48:55;;;;;;;0.10;0.10;;;;;;;;;;4904429;29;20056;-92
2023/11/12 12:51:22;;;;;;;0.10;0.10;;;;;;;;;;4904626;29;20047;-89
2023/11/12 12:53:51;;;;;;;0.10;0.10;;;;;;;;;;4902352;29;20518;-88
2023/11/12 12:56:18;;;;;;;0.10;0.10;;;;;;;;;;4918480;29;20495;-89
2023/11/12 12:58:46;;;;;;;0.15;0.15;;;;;;;;;;4905796;29;20531;-89
2023/11/12 13:01:15;;;;;;;0.10;0.10;;;;;;;;;;4906271;29;20491;-89
2023/11/12 13:03:44;;;;;;;0.22;0.22;;;;;;;;;;4918547;29;20123;-89
2023/11/12 13:06:13;;;;;;;0.10;0.10;;;;;;;;;;4917730;29;20095;-89
2023/11/12 13:08:40;;;;;;;0.10;0.10;;;;;;;;;;4902326;29;20377;-88
2023/11/12 13:11:07;;;;;;;0.10;0.10;;;;;;;;;;4901911;29;20067;-89
2023/11/12 13:13:33;;;;;;;0.30;0.20;;;;;;;;;;4902017;29;20044;-89
2023/11/12 13:15:59;;;;;;;0.20;0.20;;;;;;;;;;4902246;29;20534;-89
2023/11/12 13:18:25;;;;;;;0.20;0.20;;;;;;;;;;4901742;29;20044;-88
2023/11/12 13:20:51;;;;;;;0.20;0.20;;;;;;;;;;4917586;29;20071;-89
2023/11/12 13:23:22;;;;;;;0.10;0.10;;;;;;;;;;4901963;29;20454;-89
2023/11/12 13:25:49;;;;;;;0.20;0.20;;;;;;;;;;4901927;29;20103;-88
2023/11/12 13:28:16;;;;;;;0.30;0.30;;;;;;;;;;4917993;29;20491;-89
2023/11/12 13:30:47;;;;;;;0.10;0.10;;;;;;;;;;4917490;29;20051;-88
2023/11/12 13:33:13;;;;;;;0.10;0.10;;;;;;;;;;4902047;29;20210;-87
2023/11/12 13:35:39;;;;;;;0.10;0.10;;;;;;;;;;4901898;29;20048;-91
2023/11/12 13:38:05;;;;;;;0.15;0.15;;;;;;;;;;4902117;29;20040;-90
2023/11/12 13:40:33;;;;;;;0.30;0.30;;;;;;;;;;4902668;29;20559;-89
2023/11/12 13:42:59;;;;;;;0.28;0.28;;;;;;;;;;4902060;29;20040;-89
2023/11/12 13:45:26;;;;;;;0.10;0.10;;;;;;;;;;4917608;29;20043;-89
2023/11/12 13:47:54;;;;;;;0.20;0.20;;;;;;;;;;4902263;29;20411;-91
2023/11/12 13:50:24;;;;;;;0.22;0.22;;;;;;;;;;4902128;29;20039;-91
2023/11/12 13:52:52;;;;;;;0.10;0.10;;;;;;;;;;4917839;29;20070;-90
2023/11/12 13:55:18;;;;;;;0.20;0.20;;;;;;;;;;4902043;29;20047;-89
2023/11/12 13:57:48;;;;;;;0.10;0.10;;;;;;;;;;4920699;29;20044;-90
2023/11/12 14:00:16;;;;;;;0.10;0.10;;;;;;;;;;4904998;29;20047;-89
2023/11/12 14:02:42;;;;;;;0.10;0.10;;;;;;;;;;4905430;29;20035;-89
2023/11/12 14:05:08;;;;;;;0.43;0.43;;;;;;;;;;4920900;29;20047;-89
2023/11/12 14:07:34;;;;;;;0.10;0.10;;;;;;;;;;4905011;29;20048;-89
2023/11/12 14:10:03;;;;;;;0.10;0.10;;;;;;;;;;4905064;29;20048;-89
2023/11/12 14:12:31;;;;;;;0.10;0.10;;;;;;;;;;4920431;29;20115;-89
2023/11/12 14:15:00;;;;;;;0.10;0.10;;;;;;;;;;4920642;29;20047;-89
2023/11/12 14:17:27;;;;;;;0.10;0.10;;;;;;;;;;4920499;29;20130;-89
2023/11/12 14:19:55;;;;;;;0.20;0.20;;;;;;;;;;4920589;29;20487;-90
2023/11/12 14:22:21;;;;;;;0.10;0.10;;;;;;;;;;4904862;29;20040;-91
2023/11/12 14:24:47;;;;;;;0.10;0.10;;;;;;;;;;4920588;29;20051;-88
2023/11/12 14:27:13;;;;;;;0.20;0.20;;;;;;;;;;4920264;29;20047;-88
2023/11/12 14:29:39;;;;;;;0.10;0.10;;;;;;;;;;4920186;29;20138;-89
2023/11/12 14:32:06;;;;;;;0.10;0.10;;;;;;;;;;4904504;29;20043;-89
2023/11/12 14:34:32;;;;;;;0.17;0.17;;;;;;;;;;4904468;29;20043;-91
2023/11/12 14:36:58;;;;;;;0.10;0.10;;;;;;;;;;4904970;29;20048;-90
2023/11/12 14:39:24;;;;;;;0.20;0.20;;;;;;;;;;4904863;29;20401;-91
2023/11/12 14:41:53;;;;;;;0.10;0.10;;;;;;;;;;4904592;29;20044;-89
2023/11/12 14:44:20;;;;;;;0.10;0.10;;;;;;;;;;4904340;29;20040;-88
2023/11/12 14:46:46;;;;;;;0.10;0.10;;;;;;;;;;4904304;29;20103;-89